createdAt,value
2019-01-13T00:00:03.159Z,1
2019-01-13T00:01:03.391Z,1.1
2019-01-13T00:02:03.368Z,1.1
2019-01-13T00:03:03.110Z,1.1
2019-01-13T00:04:02.906Z,1.1
2019-01-13T00:05:03.277Z,1.1
2019-01-13T00:06:02.710Z,1.1
2019-01-13T00:07:03.365Z,1.1
2019-01-13T00:08:02.732Z,1.1
2019-01-13T00:09:02.861Z,1.1
2019-01-13T00:10:04.208Z,1.1
2019-01-13T00:11:03.013Z,1.1
2019-01-13T00:12:03.535Z,1.1
2019-01-13T00:13:03.043Z,1.1
2019-01-13T00:14:03.395Z,1.1
2019-01-13T00:15:03.399Z,1.1
2019-01-13T00:16:03.241Z,1.1
2019-01-13T00:17:03.189Z,1.1
2019-01-13T00:18:02.740Z,1.1
2019-01-13T00:19:03.387Z,1.1
2019-01-13T00:20:02.722Z,1.1
2019-01-13T00:21:03.295Z,1
2019-01-13T00:22:02.681Z,1
2019-01-13T00:23:03.710Z,1
2019-01-13T00:24:03.622Z,1
2019-01-13T00:25:02.666Z,0.9
2019-01-13T00:26:03.661Z,0.9
2019-01-13T00:27:03.242Z,1
2019-01-13T00:28:02.776Z,1
2019-01-13T00:29:02.892Z,1
2019-01-13T00:30:01.614Z,1
2019-01-13T00:31:03.555Z,1
2019-01-13T00:32:02.580Z,1
2019-01-13T00:33:03.461Z,1
2019-01-13T00:34:02.975Z,0.9
2019-01-13T00:35:03.569Z,1
2019-01-13T00:36:02.667Z,1
2019-01-13T00:37:02.907Z,1
2019-01-13T00:38:03.070Z,1
2019-01-13T00:39:03.089Z,1
2019-01-13T00:40:03.184Z,1
2019-01-13T00:41:02.527Z,1
2019-01-13T00:42:02.866Z,1.1
2019-01-13T00:43:03.587Z,1
2019-01-13T00:44:03.173Z,1.1
2019-01-13T00:45:02.841Z,1
2019-01-13T00:46:03.447Z,1
2019-01-13T00:47:03.308Z,1
2019-01-13T00:48:03.147Z,0.9
2019-01-13T00:49:02.727Z,0.9
2019-01-13T00:50:02.923Z,1
2019-01-13T00:51:02.936Z,1
2019-01-13T00:52:02.921Z,1
2019-01-13T00:53:03.022Z,1
2019-01-13T00:54:02.964Z,1
2019-01-13T00:55:02.818Z,1
2019-01-13T00:56:02.695Z,1
2019-01-13T00:57:02.993Z,1
2019-01-13T00:58:03.528Z,1
2019-01-13T00:59:03.301Z,1
2019-01-13T01:00:03.654Z,1
2019-01-13T01:01:02.815Z,1.1
2019-01-13T01:02:02.703Z,1.1
2019-01-13T01:03:03.432Z,1.1
2019-01-13T01:04:03.548Z,1.1
2019-01-13T01:05:03.351Z,1.1
2019-01-13T01:06:02.892Z,1.1
2019-01-13T01:07:03.202Z,1.1
2019-01-13T01:08:03.439Z,1.1
2019-01-13T01:09:03.265Z,1.1
2019-01-13T01:10:03.332Z,1.1
2019-01-13T01:11:03.202Z,1.1
2019-01-13T01:12:02.553Z,1.1
2019-01-13T01:13:03.364Z,1.1
2019-01-13T01:14:03.224Z,1.1
2019-01-13T01:15:02.706Z,1.1
2019-01-13T01:16:02.985Z,1.1
2019-01-13T01:17:03.287Z,1.1
2019-01-13T01:18:04.175Z,1.1
2019-01-13T01:19:03.493Z,1.1
2019-01-13T01:20:03.264Z,1.1
2019-01-13T01:21:03.476Z,1.1
2019-01-13T01:22:02.698Z,1.1
2019-01-13T01:23:02.989Z,1.1
2019-01-13T01:24:03.486Z,1.1
2019-01-13T01:25:03.422Z,1.1
2019-01-13T01:26:02.745Z,1.1
2019-01-13T01:27:02.820Z,1.1
2019-01-13T01:28:03.008Z,1.1
2019-01-13T01:29:03.273Z,1.1
2019-01-13T01:30:03.418Z,1.1
2019-01-13T01:31:03.316Z,1.1
2019-01-13T01:32:03.583Z,1.1
2019-01-13T01:33:02.735Z,1.1
2019-01-13T01:34:03.246Z,1
2019-01-13T01:35:03.319Z,1
2019-01-13T01:36:02.720Z,1
2019-01-13T01:37:03.432Z,1
2019-01-13T01:38:03.050Z,1.1
2019-01-13T01:39:03.022Z,1
2019-01-13T01:40:03.539Z,1.1
2019-01-13T01:41:03.513Z,1.1
2019-01-13T01:42:03.062Z,1.1
2019-01-13T01:43:03.132Z,1.1
2019-01-13T01:44:02.846Z,1.1
2019-01-13T01:45:02.938Z,1.1
2019-01-13T01:46:03.243Z,1
2019-01-13T01:47:03.846Z,1.1
2019-01-13T01:48:03.316Z,1.1
2019-01-13T01:49:02.416Z,1.1
2019-01-13T01:50:03.605Z,1.1
2019-01-13T01:51:02.885Z,1.1
2019-01-13T01:52:03.445Z,1.1
2019-01-13T01:53:03.392Z,1
2019-01-13T01:54:03.232Z,1.1
2019-01-13T01:55:03.212Z,1.1
2019-01-13T01:56:03.129Z,1.1
2019-01-13T01:57:03.419Z,1.1
2019-01-13T01:58:02.576Z,1.1
2019-01-13T01:59:03.415Z,1.1
2019-01-13T02:00:02.995Z,1.1
2019-01-13T02:01:02.691Z,1.1
2019-01-13T02:02:03.125Z,1
2019-01-13T02:03:03.148Z,1.1
2019-01-13T02:04:02.778Z,1.1
2019-01-13T02:05:03.405Z,1
2019-01-13T02:06:03.322Z,1
2019-01-13T02:07:03.003Z,1
2019-01-13T02:08:03.926Z,1.1
2019-01-13T02:09:02.961Z,1
2019-01-13T02:10:03.275Z,1
2019-01-13T02:11:03.325Z,1
2019-01-13T02:12:02.811Z,1
2019-01-13T02:13:02.957Z,1
2019-01-13T02:14:03.104Z,1
2019-01-13T02:15:02.931Z,1
2019-01-13T02:16:03.538Z,1
2019-01-13T02:17:03.371Z,1
2019-01-13T02:18:03.327Z,1
2019-01-13T02:19:02.915Z,1
2019-01-13T02:20:03.131Z,1
2019-01-13T02:21:03.713Z,1
2019-01-13T02:22:02.817Z,1
2019-01-13T02:23:03.651Z,1
2019-01-13T02:24:01.939Z,1
2019-01-13T02:25:03.541Z,1
2019-01-13T02:26:02.719Z,1
2019-01-13T02:27:02.897Z,1
2019-01-13T02:28:02.836Z,1
2019-01-13T02:29:02.943Z,1
2019-01-13T02:30:03.230Z,0.9
2019-01-13T02:31:03.703Z,0.9
2019-01-13T02:32:02.900Z,0.9
2019-01-13T02:33:03.280Z,0.9
2019-01-13T02:34:03.237Z,0.9
2019-01-13T02:35:03.083Z,0.9
2019-01-13T02:36:03.646Z,0.9
2019-01-13T02:37:03.192Z,0.9
2019-01-13T02:38:02.837Z,0.9
2019-01-13T02:39:03.141Z,0.9
2019-01-13T02:40:02.846Z,0.9
2019-01-13T02:41:03.629Z,0.9
2019-01-13T02:42:03.067Z,0.9
2019-01-13T02:43:02.908Z,0.9
2019-01-13T02:44:03.043Z,0.9
2019-01-13T02:45:03.192Z,0.9
2019-01-13T02:46:02.565Z,0.8
2019-01-13T02:47:03.756Z,0.8
2019-01-13T02:48:03.530Z,0.8
2019-01-13T02:49:02.813Z,0.8
2019-01-13T02:50:02.637Z,0.8
2019-01-13T02:51:02.832Z,0.8
2019-01-13T02:52:03.522Z,0.8
2019-01-13T02:53:03.395Z,0.8
2019-01-13T02:54:02.784Z,0.8
2019-01-13T02:55:03.118Z,0.8
2019-01-13T02:56:03.411Z,0.8
2019-01-13T02:57:03.646Z,0.8
2019-01-13T02:58:02.689Z,0.8
2019-01-13T02:59:02.770Z,0.7
2019-01-13T03:00:03.033Z,0.7
2019-01-13T03:01:03.082Z,0.7
2019-01-13T03:02:03.071Z,0.7
2019-01-13T03:03:03.440Z,0.7
2019-01-13T03:04:03.201Z,0.6
2019-01-13T03:05:03.372Z,0.7
2019-01-13T03:06:02.964Z,0.6
2019-01-13T03:07:03.178Z,0.7
2019-01-13T03:08:02.795Z,0.7
2019-01-13T03:09:03.219Z,0.6
2019-01-13T03:10:03.178Z,0.6
2019-01-13T03:11:02.749Z,0.6
2019-01-13T03:12:02.852Z,0.6
2019-01-13T03:13:03.491Z,0.6
2019-01-13T03:14:03.452Z,0.6
2019-01-13T03:15:03.489Z,0.6
2019-01-13T03:16:02.284Z,0.6
2019-01-13T03:17:02.666Z,0.6
2019-01-13T03:18:03.280Z,0.6
2019-01-13T03:19:02.621Z,0.6
2019-01-13T03:20:03.005Z,0.6
2019-01-13T03:21:03.290Z,0.6
2019-01-13T03:22:03.597Z,0.6
2019-01-13T03:23:03.064Z,0.6
2019-01-13T03:24:03.434Z,0.6
2019-01-13T03:25:03.327Z,0.7
2019-01-13T03:26:03.696Z,0.7
2019-01-13T03:27:03.027Z,0.6
2019-01-13T03:28:02.471Z,0.6
2019-01-13T03:29:02.960Z,0.6
2019-01-13T03:30:03.053Z,0.6
2019-01-13T03:31:12.994Z,0.6
2019-01-13T03:32:03.724Z,0.6
2019-01-13T03:33:03.747Z,0.6
2019-01-13T03:34:02.717Z,0.7
2019-01-13T03:35:02.985Z,0.7
2019-01-13T03:36:03.004Z,0.7
2019-01-13T03:37:02.954Z,0.7
2019-01-13T03:38:02.671Z,0.7
2019-01-13T03:39:02.624Z,0.7
2019-01-13T03:40:02.756Z,0.7
2019-01-13T03:41:03.289Z,0.8
2019-01-13T03:42:03.552Z,0.8
2019-01-13T03:43:03.202Z,0.8
2019-01-13T03:44:02.980Z,0.8
2019-01-13T03:45:03.358Z,0.8
2019-01-13T03:46:02.834Z,0.8
2019-01-13T03:47:03.281Z,0.9
2019-01-13T03:48:03.205Z,0.9
2019-01-13T03:49:03.429Z,0.9
2019-01-13T03:50:03.124Z,0.9
2019-01-13T03:51:03.219Z,0.9
2019-01-13T03:52:03.074Z,0.9
2019-01-13T03:53:02.716Z,0.9
2019-01-13T03:54:03.356Z,0.9
2019-01-13T03:55:03.291Z,0.9
2019-01-13T03:56:02.814Z,0.9
2019-01-13T03:57:03.516Z,0.9
2019-01-13T03:58:03.228Z,0.9
2019-01-13T03:59:02.894Z,0.9
2019-01-13T04:00:03.441Z,0.9
2019-01-13T04:01:02.828Z,1
2019-01-13T04:02:02.829Z,1
2019-01-13T04:03:02.911Z,1
2019-01-13T04:04:03.401Z,1.1
2019-01-13T04:05:03.054Z,1.1
2019-01-13T04:06:03.500Z,1.1
2019-01-13T04:07:03.549Z,1.1
2019-01-13T04:08:03.227Z,1.1
2019-01-13T04:09:03.048Z,1.1
2019-01-13T04:10:03.572Z,1.1
2019-01-13T04:11:03.095Z,1.1
2019-01-13T04:12:03.505Z,1.1
2019-01-13T04:13:02.889Z,1.1
2019-01-13T04:14:03.130Z,1.1
2019-01-13T04:15:03.696Z,1.1
2019-01-13T04:16:03.142Z,1.1
2019-01-13T04:17:03.179Z,1.1
2019-01-13T04:18:02.947Z,1.2
2019-01-13T04:19:02.590Z,1.2
2019-01-13T04:20:03.553Z,1.2
2019-01-13T04:21:02.595Z,1.2
2019-01-13T04:22:03.432Z,1.2
2019-01-13T04:23:02.538Z,1.3
2019-01-13T04:24:03.299Z,1.3
2019-01-13T04:25:02.688Z,1.3
2019-01-13T04:26:03.363Z,1.3
2019-01-13T04:27:03.310Z,1.3
2019-01-13T04:28:03.077Z,1.3
2019-01-13T04:29:03.101Z,1.3
2019-01-13T04:30:03.358Z,1.3
2019-01-13T04:31:02.669Z,1.3
2019-01-13T04:32:03.540Z,1.3
2019-01-13T04:33:02.844Z,1.3
2019-01-13T04:34:02.918Z,1.3
2019-01-13T04:35:03.500Z,1.3
2019-01-13T04:36:03.563Z,1.3
2019-01-13T04:37:03.061Z,1.3
2019-01-13T04:38:02.686Z,1.4
2019-01-13T04:39:03.075Z,1.3
2019-01-13T04:40:03.092Z,1.3
2019-01-13T04:41:03.260Z,1.3
2019-01-13T04:42:03.451Z,1.3
2019-01-13T04:43:02.771Z,1.3
2019-01-13T04:44:02.723Z,1.3
2019-01-13T04:45:02.846Z,1.3
2019-01-13T04:46:02.945Z,1.3
2019-01-13T04:47:03.425Z,1.3
2019-01-13T04:48:03.469Z,1.4
2019-01-13T04:49:02.938Z,1.4
2019-01-13T04:50:03.001Z,1.4
2019-01-13T04:51:03.306Z,1.4
2019-01-13T04:52:03.271Z,1.4
2019-01-13T04:53:02.871Z,1.4
2019-01-13T04:54:02.987Z,1.4
2019-01-13T04:55:02.904Z,1.4
2019-01-13T04:56:03.500Z,1.4
2019-01-13T04:57:03.250Z,1.4
2019-01-13T04:58:02.874Z,1.3
2019-01-13T04:59:02.701Z,1.3
2019-01-13T05:00:03.170Z,1.3
2019-01-13T05:01:02.766Z,1.3
2019-01-13T05:02:03.332Z,1.4
2019-01-13T05:03:03.161Z,1.4
2019-01-13T05:04:02.775Z,1.3
2019-01-13T05:05:03.256Z,1.3
2019-01-13T05:06:03.625Z,1.4
2019-01-13T05:07:03.070Z,1.3
2019-01-13T05:08:03.477Z,1.3
2019-01-13T05:09:02.831Z,1.3
2019-01-13T05:10:03.709Z,1.3
2019-01-13T05:11:03.089Z,1.3
2019-01-13T05:12:03.427Z,1.3
2019-01-13T05:13:02.482Z,1.3
2019-01-13T05:14:02.920Z,1.3
2019-01-13T05:15:03.294Z,1.2
2019-01-13T05:16:02.725Z,1.2
2019-01-13T05:17:02.609Z,1.2
2019-01-13T05:18:02.840Z,1.1
2019-01-13T05:19:03.649Z,1.1
2019-01-13T05:20:03.220Z,1.1
2019-01-13T05:21:02.979Z,1.1
2019-01-13T05:22:03.084Z,1.1
2019-01-13T05:23:03.187Z,1.1
2019-01-13T05:24:02.567Z,1.1
2019-01-13T05:25:03.604Z,1.1
2019-01-13T05:26:03.661Z,1.1
2019-01-13T05:27:03.531Z,1
2019-01-13T05:28:03.403Z,1
2019-01-13T05:29:03.471Z,1
2019-01-13T05:30:02.782Z,1
2019-01-13T05:31:03.613Z,1
2019-01-13T05:32:03.346Z,1
2019-01-13T05:33:02.709Z,1
2019-01-13T05:34:02.704Z,1
2019-01-13T05:35:03.463Z,1
2019-01-13T05:36:02.710Z,1
2019-01-13T05:37:03.558Z,1
2019-01-13T05:38:02.678Z,1
2019-01-13T05:39:02.883Z,1.1
2019-01-13T05:40:03.207Z,1.1
2019-01-13T05:41:02.876Z,1.1
2019-01-13T05:42:03.070Z,1.1
2019-01-13T05:43:03.497Z,1.1
2019-01-13T05:44:02.774Z,1.1
2019-01-13T05:45:03.552Z,1.1
2019-01-13T05:46:02.922Z,1.2
2019-01-13T05:47:03.386Z,1.2
2019-01-13T05:48:02.647Z,1.2
2019-01-13T05:49:03.421Z,1.3
2019-01-13T05:50:03.181Z,1.3
2019-01-13T05:51:03.101Z,1.3
2019-01-13T05:52:02.855Z,1.3
2019-01-13T05:53:02.633Z,1.3
2019-01-13T05:54:02.694Z,1.3
2019-01-13T05:55:03.487Z,1.3
2019-01-13T05:56:03.112Z,1.3
2019-01-13T05:57:03.112Z,1.3
2019-01-13T05:58:03.461Z,1.4
2019-01-13T05:59:02.710Z,1.4
2019-01-13T06:00:03.168Z,1.4
2019-01-13T06:01:03.546Z,1.4
2019-01-13T06:02:03.180Z,1.4
2019-01-13T06:03:02.623Z,1.4
2019-01-13T06:04:03.310Z,1.4
2019-01-13T06:05:03.706Z,1.4
2019-01-13T06:06:03.339Z,1.4
2019-01-13T06:07:02.849Z,1.4
2019-01-13T06:08:03.600Z,1.5
2019-01-13T06:09:03.067Z,1.5
2019-01-13T06:10:02.923Z,1.4
2019-01-13T06:11:03.291Z,1.4
2019-01-13T06:12:03.556Z,1.4
2019-01-13T06:13:03.546Z,1.4
2019-01-13T06:14:02.890Z,1.4
2019-01-13T06:15:02.965Z,1.4
2019-01-13T06:16:03.439Z,1.5
2019-01-13T06:17:02.630Z,1.5
2019-01-13T06:18:03.324Z,1.5
2019-01-13T06:19:03.014Z,1.5
2019-01-13T06:20:03.340Z,1.5
2019-01-13T06:21:02.854Z,1.5
2019-01-13T06:22:03.361Z,1.6
2019-01-13T06:23:03.343Z,1.6
2019-01-13T06:24:03.005Z,1.6
2019-01-13T06:25:02.967Z,1.6
2019-01-13T06:26:03.107Z,1.6
2019-01-13T06:27:02.887Z,1.6
2019-01-13T06:28:02.953Z,1.6
2019-01-13T06:29:02.814Z,1.6
2019-01-13T06:30:03.135Z,1.6
2019-01-13T06:31:02.974Z,1.6
2019-01-13T06:32:03.029Z,1.6
2019-01-13T06:33:02.921Z,1.6
2019-01-13T06:34:02.967Z,1.6
2019-01-13T06:35:02.653Z,1.6
2019-01-13T06:36:03.466Z,1.6
2019-01-13T06:37:03.169Z,1.6
2019-01-13T06:38:03.895Z,1.6
2019-01-13T06:39:03.344Z,1.6
2019-01-13T06:40:03.187Z,1.6
2019-01-13T06:41:03.175Z,1.6
2019-01-13T06:42:02.996Z,1.6
2019-01-13T06:43:03.257Z,1.7
2019-01-13T06:44:03.156Z,1.6
2019-01-13T06:45:03.196Z,1.6
2019-01-13T06:46:02.687Z,1.6
2019-01-13T06:47:02.686Z,1.6
2019-01-13T06:48:03.536Z,1.6
2019-01-13T06:49:02.733Z,1.6
2019-01-13T06:50:03.197Z,1.6
2019-01-13T06:51:02.852Z,1.6
2019-01-13T06:52:02.902Z,1.6
2019-01-13T06:53:03.645Z,1.6
2019-01-13T06:54:02.697Z,1.6
2019-01-13T06:55:03.030Z,1.6
2019-01-13T06:56:02.993Z,1.7
2019-01-13T06:57:03.136Z,1.7
2019-01-13T06:58:02.952Z,1.7
2019-01-13T06:59:02.930Z,1.7
2019-01-13T07:00:03.469Z,1.6
2019-01-13T07:01:03.076Z,1.7
2019-01-13T07:02:03.699Z,1.7
2019-01-13T07:03:03.014Z,1.6
2019-01-13T07:04:02.766Z,1.7
2019-01-13T07:05:03.501Z,1.7
2019-01-13T07:06:03.327Z,1.7
2019-01-13T07:07:02.659Z,1.7
2019-01-13T07:08:03.191Z,1.7
2019-01-13T07:09:02.618Z,1.7
2019-01-13T07:10:02.912Z,1.7
2019-01-13T07:11:03.056Z,1.7
2019-01-13T07:12:03.014Z,1.7
2019-01-13T07:13:02.869Z,1.7
2019-01-13T07:14:03.399Z,1.7
2019-01-13T07:15:03.693Z,1.7
2019-01-13T07:16:03.583Z,1.7
2019-01-13T07:17:03.380Z,1.7
2019-01-13T07:18:03.442Z,1.8
2019-01-13T07:19:03.816Z,1.7
2019-01-13T07:20:03.695Z,1.7
2019-01-13T07:21:02.667Z,1.7
2019-01-13T07:22:03.378Z,1.8
2019-01-13T07:23:02.598Z,1.8
2019-01-13T07:24:03.452Z,1.8
2019-01-13T07:25:03.378Z,1.8
2019-01-13T07:26:02.486Z,1.8
2019-01-13T07:27:03.606Z,1.8
2019-01-13T07:28:02.779Z,1.8
2019-01-13T07:29:03.445Z,1.8
2019-01-13T07:30:02.895Z,1.8
2019-01-13T07:31:03.199Z,1.8
2019-01-13T07:32:03.036Z,1.8
2019-01-13T07:33:02.893Z,1.8
2019-01-13T07:34:03.616Z,1.8
2019-01-13T07:35:03.103Z,1.8
2019-01-13T07:36:01.702Z,1.8
2019-01-13T07:37:02.754Z,1.8
2019-01-13T07:38:03.019Z,1.8
2019-01-13T07:39:03.591Z,1.8
2019-01-13T07:40:02.884Z,1.8
2019-01-13T07:41:03.623Z,1.8
2019-01-13T07:42:02.564Z,1.8
2019-01-13T07:43:03.403Z,1.8
2019-01-13T07:44:03.597Z,1.8
2019-01-13T07:45:02.924Z,1.8
2019-01-13T07:46:03.501Z,1.8
2019-01-13T07:47:03.416Z,1.8
2019-01-13T07:48:03.097Z,1.8
2019-01-13T07:49:03.306Z,1.8
2019-01-13T07:50:03.453Z,1.8
2019-01-13T07:51:02.941Z,1.8
2019-01-13T07:52:02.921Z,1.8
2019-01-13T07:53:02.722Z,1.8
2019-01-13T07:54:03.764Z,1.8
2019-01-13T07:55:02.804Z,1.8
2019-01-13T07:56:02.866Z,1.8
2019-01-13T07:57:02.647Z,1.8
2019-01-13T07:58:03.869Z,1.8
2019-01-13T07:59:02.781Z,1.8
2019-01-13T08:00:03.059Z,1.8
2019-01-13T08:01:03.736Z,1.8
2019-01-13T08:02:03.058Z,1.8
2019-01-13T08:03:02.732Z,1.9
2019-01-13T08:04:03.166Z,1.9
2019-01-13T08:05:03.281Z,1.9
2019-01-13T08:06:02.720Z,1.9
2019-01-13T08:07:03.445Z,1.9
2019-01-13T08:08:03.192Z,1.9
2019-01-13T08:09:02.945Z,1.8
2019-01-13T08:10:03.459Z,1.9
2019-01-13T08:11:03.495Z,1.9
2019-01-13T08:12:03.075Z,1.9
2019-01-13T08:13:03.383Z,1.9
2019-01-13T08:14:03.257Z,1.9
2019-01-13T08:15:03.314Z,1.9
2019-01-13T08:16:02.904Z,1.9
2019-01-13T08:17:02.754Z,1.9
2019-01-13T08:18:02.750Z,1.9
2019-01-13T08:19:02.873Z,1.9
2019-01-13T08:20:03.023Z,1.9
2019-01-13T08:21:03.053Z,1.9
2019-01-13T08:22:03.393Z,1.9
2019-01-13T08:23:02.147Z,1.9
2019-01-13T08:24:03.181Z,1.9
2019-01-13T08:25:03.430Z,1.9
2019-01-13T08:26:03.206Z,1.9
2019-01-13T08:27:03.272Z,1.9
2019-01-13T08:28:02.782Z,1.9
2019-01-13T08:29:03.008Z,1.9
2019-01-13T08:30:03.689Z,1.9
2019-01-13T08:31:03.394Z,1.9
2019-01-13T08:32:02.847Z,1.9
2019-01-13T08:33:03.447Z,1.9
2019-01-13T08:34:03.195Z,1.9
2019-01-13T08:35:02.833Z,1.9
2019-01-13T08:36:02.744Z,1.9
2019-01-13T08:37:03.571Z,1.9
2019-01-13T08:38:02.718Z,1.9
2019-01-13T08:39:02.860Z,1.9
2019-01-13T08:40:03.837Z,1.9
2019-01-13T08:41:02.866Z,1.9
2019-01-13T08:42:03.543Z,1.9
2019-01-13T08:43:03.167Z,1.9
2019-01-13T08:44:03.435Z,1.9
2019-01-13T08:45:03.252Z,1.9
2019-01-13T08:46:02.735Z,1.9
2019-01-13T08:47:03.596Z,1.9
2019-01-13T08:48:02.860Z,1.9
2019-01-13T08:49:02.949Z,1.9
2019-01-13T08:50:03.648Z,1.9
2019-01-13T08:51:03.078Z,1.9
2019-01-13T08:52:02.859Z,1.9
2019-01-13T08:53:03.399Z,1.9
2019-01-13T08:54:03.525Z,1.9
2019-01-13T08:55:03.666Z,1.9
2019-01-13T08:56:03.144Z,1.9
2019-01-13T08:57:02.997Z,1.9
2019-01-13T08:58:03.675Z,1.9
2019-01-13T08:59:02.764Z,1.9
2019-01-13T09:00:02.718Z,1.9
2019-01-13T09:01:03.496Z,1.9
2019-01-13T09:02:03.367Z,1.9
2019-01-13T09:03:02.662Z,1.9
2019-01-13T09:04:03.364Z,1.9
2019-01-13T09:05:03.021Z,1.9
2019-01-13T09:06:02.632Z,1.9
2019-01-13T09:07:03.242Z,1.9
2019-01-13T09:08:03.164Z,1.9
2019-01-13T09:09:03.527Z,1.9
2019-01-13T09:10:03.022Z,1.9
2019-01-13T09:11:03.325Z,1.9
2019-01-13T09:12:02.866Z,1.9
2019-01-13T09:13:02.766Z,1.9
2019-01-13T09:14:03.230Z,1.9
2019-01-13T09:15:03.269Z,1.9
2019-01-13T09:16:03.152Z,1.9
2019-01-13T09:17:03.501Z,2
2019-01-13T09:18:03.510Z,2
2019-01-13T09:19:02.988Z,2
2019-01-13T09:20:03.047Z,2
2019-01-13T09:21:02.810Z,2.1
2019-01-13T09:22:03.124Z,2
2019-01-13T09:23:03.059Z,2
2019-01-13T09:24:02.841Z,2.1
2019-01-13T09:25:03.559Z,2.1
2019-01-13T09:26:02.827Z,2.1
2019-01-13T09:27:02.896Z,2.1
2019-01-13T09:28:03.873Z,2.1
2019-01-13T09:29:02.658Z,2.1
2019-01-13T09:30:02.911Z,2.1
2019-01-13T09:31:02.843Z,2.1
2019-01-13T09:32:02.976Z,2.1
2019-01-13T09:33:03.025Z,2.1
2019-01-13T09:34:03.333Z,2.1
2019-01-13T09:35:03.519Z,2.1
2019-01-13T09:36:02.952Z,2.1
2019-01-13T09:37:03.024Z,2.1
2019-01-13T09:38:02.898Z,2.1
2019-01-13T09:39:03.218Z,2.1
2019-01-13T09:40:03.111Z,2.1
2019-01-13T09:41:03.146Z,2.1
2019-01-13T09:42:02.828Z,2.1
2019-01-13T09:43:03.078Z,2.1
2019-01-13T09:44:03.242Z,2.1
2019-01-13T09:45:02.718Z,2.2
2019-01-13T09:46:02.679Z,2.2
2019-01-13T09:47:02.631Z,2.2
2019-01-13T09:48:03.516Z,2.2
2019-01-13T09:49:03.198Z,2.2
2019-01-13T09:50:03.394Z,2.2
2019-01-13T09:51:03.737Z,2.2
2019-01-13T09:52:03.124Z,2.2
2019-01-13T09:53:03.636Z,2.2
2019-01-13T09:54:02.877Z,2.2
2019-01-13T09:55:02.845Z,2.3
2019-01-13T09:56:03.325Z,2.3
2019-01-13T09:57:02.853Z,2.3
2019-01-13T09:58:02.910Z,2.3
2019-01-13T09:59:03.019Z,2.3
2019-01-13T10:00:02.740Z,2.3
2019-01-13T10:01:03.167Z,2.3
2019-01-13T10:02:02.787Z,2.3
2019-01-13T10:03:03.266Z,2.3
2019-01-13T10:04:03.583Z,2.3
2019-01-13T10:05:03.393Z,2.3
2019-01-13T10:06:03.148Z,2.3
2019-01-13T10:07:03.366Z,2.4
2019-01-13T10:08:02.713Z,2.4
2019-01-13T10:09:02.859Z,2.4
2019-01-13T10:10:03.387Z,2.4
2019-01-13T10:11:02.801Z,2.4
2019-01-13T10:12:03.103Z,2.4
2019-01-13T10:13:03.568Z,2.4
2019-01-13T10:14:02.744Z,2.4
2019-01-13T10:15:02.732Z,2.4
2019-01-13T10:16:03.553Z,2.4
2019-01-13T10:17:03.001Z,2.4
2019-01-13T10:18:03.364Z,2.4
2019-01-13T10:19:03.073Z,2.4
2019-01-13T10:20:03.581Z,2.4
2019-01-13T10:21:03.014Z,2.4
2019-01-13T10:22:02.818Z,2.4
2019-01-13T10:23:03.383Z,2.4
2019-01-13T10:24:03.566Z,2.4
2019-01-13T10:25:03.328Z,2.4
2019-01-13T10:26:02.766Z,2.4
2019-01-13T10:27:03.211Z,2.4
2019-01-13T10:28:03.457Z,2.4
2019-01-13T10:29:03.168Z,2.4
2019-01-13T10:30:02.835Z,2.4
2019-01-13T10:31:03.691Z,2.4
2019-01-13T10:32:02.890Z,2.4
2019-01-13T10:33:03.147Z,2.4
2019-01-13T10:34:03.285Z,2.5
2019-01-13T10:35:02.965Z,2.5
2019-01-13T10:36:03.620Z,2.5
2019-01-13T10:37:03.405Z,2.5
2019-01-13T10:38:03.520Z,2.5
2019-01-13T10:39:02.521Z,2.6
2019-01-13T10:40:03.597Z,2.6
2019-01-13T10:41:03.234Z,2.6
2019-01-13T10:42:03.429Z,2.5
2019-01-13T10:43:02.923Z,2.5
2019-01-13T10:44:02.860Z,2.6
2019-01-13T10:45:03.265Z,2.5
2019-01-13T10:46:03.256Z,2.5
2019-01-13T10:47:03.370Z,2.5
2019-01-13T10:48:02.818Z,2.5
2019-01-13T10:49:03.066Z,2.5
2019-01-13T10:50:02.932Z,2.6
2019-01-13T10:51:03.603Z,2.6
2019-01-13T10:52:02.752Z,2.6
2019-01-13T10:53:02.700Z,2.5
2019-01-13T10:54:09.592Z,2.6
2019-01-13T10:55:03.349Z,2.6
2019-01-13T10:56:03.570Z,2.6
2019-01-13T10:57:02.671Z,2.6
2019-01-13T10:58:02.968Z,2.6
2019-01-13T10:59:03.392Z,2.6
2019-01-13T11:00:02.999Z,2.6
2019-01-13T11:01:03.332Z,2.6
2019-01-13T11:02:03.126Z,2.6
2019-01-13T11:03:03.579Z,2.6
2019-01-13T11:04:01.845Z,2.6
2019-01-13T11:05:03.028Z,2.6
2019-01-13T11:06:03.532Z,2.6
2019-01-13T11:07:02.675Z,2.6
2019-01-13T11:08:02.250Z,2.6
2019-01-13T11:09:03.417Z,2.6
2019-01-13T11:10:03.441Z,2.5
2019-01-13T11:11:03.320Z,2.6
2019-01-13T11:12:03.619Z,2.5
2019-01-13T11:13:03.497Z,2.6
2019-01-13T11:14:03.122Z,2.5
2019-01-13T11:15:03.352Z,2.6
2019-01-13T11:16:03.262Z,2.5
2019-01-13T11:17:01.848Z,2.5
2019-01-13T11:18:02.736Z,2.5
2019-01-13T11:19:03.405Z,2.5
2019-01-13T11:20:03.126Z,2.5
2019-01-13T11:21:03.290Z,2.5
2019-01-13T11:22:03.562Z,2.5
2019-01-13T11:23:02.894Z,2.6
2019-01-13T11:24:02.775Z,2.5
2019-01-13T11:25:03.732Z,2.5
2019-01-13T11:26:03.705Z,2.5
2019-01-13T11:27:03.342Z,2.5
2019-01-13T11:28:03.178Z,2.5
2019-01-13T11:29:03.934Z,2.5
2019-01-13T11:30:03.530Z,2.4
2019-01-13T11:31:03.232Z,2.4
2019-01-13T11:32:02.626Z,2.4
2019-01-13T11:33:10.051Z,2.4
2019-01-13T11:34:03.198Z,2.4
2019-01-13T11:35:02.942Z,2.4
2019-01-13T11:36:03.309Z,2.4
2019-01-13T11:37:03.310Z,2.4
2019-01-13T11:38:03.104Z,2.4
2019-01-13T11:39:03.575Z,2.4
2019-01-13T11:40:02.891Z,2.4
2019-01-13T11:41:02.973Z,2.4
2019-01-13T11:42:03.162Z,2.4
2019-01-13T11:43:03.301Z,2.4
2019-01-13T11:44:02.846Z,2.4
2019-01-13T11:45:03.048Z,2.4
2019-01-13T11:46:02.787Z,2.4
2019-01-13T11:47:03.694Z,2.4
2019-01-13T11:48:03.459Z,2.4
2019-01-13T11:49:03.582Z,2.4
2019-01-13T11:50:02.781Z,2.4
2019-01-13T11:51:03.926Z,2.4
2019-01-13T11:52:02.774Z,2.4
2019-01-13T11:53:03.652Z,2.4
2019-01-13T11:54:03.348Z,2.3
2019-01-13T11:55:03.182Z,2.3
2019-01-13T11:56:03.314Z,2.3
2019-01-13T11:57:03.123Z,2.3
2019-01-13T11:58:03.144Z,2.3
2019-01-13T11:59:03.615Z,2.3
2019-01-13T12:00:02.987Z,2.3
2019-01-13T12:01:03.082Z,2.3
2019-01-13T12:02:03.133Z,2.3
2019-01-13T12:03:07.160Z,2.2
2019-01-13T12:04:03.531Z,2.2
2019-01-13T12:05:03.245Z,2.2
2019-01-13T12:06:03.438Z,2.2
2019-01-13T12:07:03.054Z,2.2
2019-01-13T12:08:03.674Z,2.2
2019-01-13T12:09:03.462Z,2.2
2019-01-13T12:10:03.693Z,2.3
2019-01-13T12:11:03.444Z,2.2
2019-01-13T12:12:02.666Z,2.2
2019-01-13T12:13:03.077Z,2.2
2019-01-13T12:14:02.855Z,2.2
2019-01-13T12:15:03.687Z,2.3
2019-01-13T12:16:03.101Z,2.3
2019-01-13T12:17:03.422Z,2.2
2019-01-13T12:18:03.201Z,2.2
2019-01-13T12:19:03.617Z,2.2
2019-01-13T12:20:02.712Z,2.2
2019-01-13T12:21:02.917Z,2.2
2019-01-13T12:22:03.380Z,2.2
2019-01-13T12:23:02.692Z,2.2
2019-01-13T12:24:02.740Z,2.2
2019-01-13T12:25:03.412Z,2.2
2019-01-13T12:26:03.682Z,2.2
2019-01-13T12:27:03.013Z,2.1
2019-01-13T12:28:03.022Z,2.1
2019-01-13T12:29:02.945Z,2.1
2019-01-13T12:30:02.938Z,2.1
2019-01-13T12:31:03.162Z,2.1
2019-01-13T12:32:03.477Z,2.1
2019-01-13T12:33:03.198Z,2.1
2019-01-13T12:34:02.419Z,2.1
2019-01-13T12:35:02.763Z,2.1
2019-01-13T12:36:03.582Z,2
2019-01-13T12:37:03.446Z,2
2019-01-13T12:38:03.417Z,2
2019-01-13T12:39:02.828Z,2
2019-01-13T12:40:03.482Z,1.9
2019-01-13T12:41:02.833Z,1.9
2019-01-13T12:42:03.477Z,1.9
2019-01-13T12:43:03.578Z,1.9
2019-01-13T12:44:03.221Z,1.9
2019-01-13T12:45:02.776Z,1.9
2019-01-13T12:46:02.713Z,1.9
2019-01-13T12:47:03.370Z,1.9
2019-01-13T12:48:02.832Z,1.9
2019-01-13T12:49:03.589Z,1.8
2019-01-13T12:50:03.170Z,1.8
2019-01-13T12:51:03.584Z,1.8
2019-01-13T12:52:02.524Z,1.8
2019-01-13T12:53:03.221Z,1.8
2019-01-13T12:54:03.402Z,1.8
2019-01-13T12:55:03.359Z,1.8
2019-01-13T12:56:03.017Z,1.8
2019-01-13T12:57:03.461Z,1.8
2019-01-13T12:58:03.117Z,1.7
2019-01-13T12:59:03.344Z,1.8
2019-01-13T13:00:03.518Z,1.7
2019-01-13T13:01:03.208Z,1.6
2019-01-13T13:02:02.884Z,1.6
2019-01-13T13:03:03.060Z,1.6
2019-01-13T13:04:03.319Z,1.6
2019-01-13T13:05:03.263Z,1.6
2019-01-13T13:06:03.216Z,1.6
2019-01-13T13:07:03.230Z,1.6
2019-01-13T13:08:03.037Z,1.6
2019-01-13T13:09:02.875Z,1.5
2019-01-13T13:10:02.682Z,1.5
2019-01-13T13:11:03.528Z,1.5
2019-01-13T13:12:02.863Z,1.5
2019-01-13T13:13:03.441Z,1.5
2019-01-13T13:14:03.677Z,1.5
2019-01-13T13:15:03.528Z,1.4
2019-01-13T13:16:03.336Z,1.4
2019-01-13T13:17:02.847Z,1.4
2019-01-13T13:18:02.830Z,1.4
2019-01-13T13:19:03.178Z,1.4
2019-01-13T13:20:03.162Z,1.4
2019-01-13T13:21:02.901Z,1.4
2019-01-13T13:22:03.246Z,1.4
2019-01-13T13:23:04.493Z,1.4
2019-01-13T13:24:03.068Z,1.4
2019-01-13T13:25:02.999Z,1.4
2019-01-13T13:26:03.230Z,1.4
2019-01-13T13:27:03.378Z,1.4
2019-01-13T13:28:03.416Z,1.4
2019-01-13T13:29:02.757Z,1.4
2019-01-13T13:30:03.194Z,1.4
2019-01-13T13:31:03.176Z,1.4
2019-01-13T13:32:02.962Z,1.4
2019-01-13T13:33:03.078Z,1.4
2019-01-13T13:34:03.545Z,1.4
2019-01-13T13:35:03.361Z,1.4
2019-01-13T13:36:02.707Z,1.4
2019-01-13T13:37:03.647Z,1.4
2019-01-13T13:38:03.437Z,1.4
2019-01-13T13:39:03.527Z,1.4
2019-01-13T13:40:03.535Z,1.4
2019-01-13T13:41:03.235Z,1.4
2019-01-13T13:42:02.913Z,1.4
2019-01-13T13:43:02.872Z,1.4
2019-01-13T13:44:03.349Z,1.4
2019-01-13T13:45:03.719Z,1.4
2019-01-13T13:46:02.866Z,1.4
2019-01-13T13:47:03.312Z,1.4
2019-01-13T13:48:03.619Z,1.4
2019-01-13T13:49:02.680Z,1.4
2019-01-13T13:50:03.579Z,1.4
2019-01-13T13:51:03.389Z,1.4
2019-01-13T13:52:02.975Z,1.4